Time;durP1;ratioP1;P1;durP2;ratioP2;P2;SDS_P1;SDS_P2;PMS_P1;PMS_P2;Temp;Humidity;BMP_temperature;BMP_pressure;BME280_temperature;BME280_humidity;BME280_pressure;Samples;Min_cycle;Max_cycle;Signal;HPM_P1;HPM_P2
2021/12/26 00:00:33;;;;;;;3.25;3.03;;;-4.70;1.00;;;;;;5034122;28;20199;-76
2021/12/26 00:02:59;;;;;;;8.80;4.43;;;-4.60;1.00;;;;;;5033668;28;20171;-66
2021/12/26 00:05:26;;;;;;;3.43;3.23;;;-4.60;1.00;;;;;;5034615;28;20710;-71
2021/12/26 00:07:53;;;;;;;4.55;3.95;;;-4.60;1.00;;;;;;5032555;28;20199;-76
2021/12/26 00:10:21;;;;;;;7.28;3.00;;;-4.60;1.00;;;;;;5032723;28;20632;-67
2021/12/26 00:12:48;;;;;;;3.63;3.10;;;-4.60;1.00;;;;;;5033138;28;20170;-67
2021/12/26 00:15:14;;;;;;;5.28;4.78;;;-4.60;1.00;;;;;;5034111;28;20503;-68
2021/12/26 00:17:40;;;;;;;3.50;3.20;;;-4.70;1.00;;;;;;5033466;28;20171;-76
2021/12/26 00:20:07;;;;;;;2.90;2.70;;;-4.70;1.00;;;;;;5033255;28;20776;-75
2021/12/26 00:22:33;;;;;;;3.45;3.15;;;-4.60;1.00;;;;;;5032964;28;20497;-72
2021/12/26 00:24:59;;;;;;;2.97;2.73;;;-4.70;1.00;;;;;;5032756;28;20262;-76
2021/12/26 00:27:25;;;;;;;3.90;3.60;;;-4.70;1.00;;;;;;5033725;28;20237;-72
2021/12/26 00:29:51;;;;;;;3.30;2.67;;;-4.60;1.00;;;;;;5033806;28;20191;-76
2021/12/26 00:32:17;;;;;;;3.17;2.97;;;-4.60;1.00;;;;;;5032683;28;20175;-76
2021/12/26 00:34:44;;;;;;;3.70;3.50;;;-4.60;1.00;;;;;;5033003;28;20748;-74
2021/12/26 00:37:11;;;;;;;3.63;3.42;;;-4.70;1.00;;;;;;5033527;28;20422;-67
2021/12/26 00:39:37;;;;;;;4.72;4.53;;;-4.80;1.00;;;;;;5033551;28;20164;-66
2021/12/26 00:42:03;;;;;;;4.38;4.13;;;-4.80;1.00;;;;;;5031750;28;20178;-75
2021/12/26 00:44:29;;;;;;;3.22;3.03;;;-4.70;1.00;;;;;;5033114;28;20207;-71
2021/12/26 00:46:55;;;;;;;4.30;4.10;;;-4.70;1.00;;;;;;5033383;28;20226;-76
2021/12/26 00:49:22;;;;;;;3.93;3.10;;;-4.70;1.00;;;;;;5033533;28;20538;-70
2021/12/26 00:51:48;;;;;;;5.30;4.97;;;-4.70;1.00;;;;;;5032353;28;20191;-68
2021/12/26 00:54:14;;;;;;;4.38;4.07;;;-4.60;1.00;;;;;;5031256;28;20510;-76
2021/12/26 00:56:40;;;;;;;6.23;5.33;;;-4.60;1.00;;;;;;5033340;28;20263;-67
2021/12/26 00:59:06;;;;;;;5.27;4.87;;;-4.60;1.00;;;;;;5033305;28;20226;-73
2021/12/26 01:01:31;;;;;;;4.83;4.37;;;-4.60;1.00;;;;;;5033266;28;20441;-75
2021/12/26 01:03:57;;;;;;;4.20;4.00;;;-4.60;1.00;;;;;;5030934;28;20187;-67
2021/12/26 01:06:24;;;;;;;5.23;4.83;;;-4.50;1.00;;;;;;5032947;28;20257;-67
2021/12/26 01:08:51;;;;;;;4.60;4.20;;;-4.50;1.00;;;;;;5033000;28;20250;-76
2021/12/26 01:11:35;;;;;;;4.72;4.25;;;-4.50;1.00;;;;;;5031374;28;20254;-67
2021/12/26 01:14:04;;;;;;;4.13;3.88;;;-4.50;1.00;;;;;;5032249;28;20219;-68
2021/12/26 01:16:31;;;;;;;4.95;4.53;;;-4.50;1.00;;;;;;5032931;28;20194;-76
2021/12/26 01:19:05;;;;;;;10.20;5.30;;;-4.50;1.00;;;;;;5032887;28;20526;-68
2021/12/26 01:21:31;;;;;;;8.02;5.40;;;-4.50;2.50;;;;;;5032973;28;20640;-76
2021/12/26 01:24:00;;;;;;;6.07;4.73;;;-4.50;6.30;;;;;;5032278;28;20173;-76
2021/12/26 01:26:27;;;;;;;6.57;5.93;;;-4.50;7.10;;;;;;5032681;28;20191;-67
2021/12/26 01:28:53;;;;;;;6.43;5.75;;;-4.50;10.70;;;;;;5032320;28;20195;-76
2021/12/26 01:31:19;;;;;;;6.03;5.63;;;-4.50;15.90;;;;;;5031891;28;20525;-68
2021/12/26 01:33:51;;;;;;;5.20;4.68;;;-4.40;20.10;;;;;;5032107;28;20387;-76
2021/12/26 01:36:16;;;;;;;6.25;4.43;;;-4.40;21.40;;;;;;5032906;28;20183;-67
2021/12/26 01:38:42;;;;;;;6.30;5.70;;;-4.40;21.40;;;;;;5032644;28;20703;-68
2021/12/26 01:41:10;;;;;;;4.45;4.15;;;-4.40;21.40;;;;;;5031620;28;20180;-67
2021/12/26 01:43:38;;;;;;;4.70;4.40;;;-4.50;18.50;;;;;;5031550;28;20216;-67
2021/12/26 01:46:04;;;;;;;7.10;6.53;;;-4.50;11.40;;;;;;5032428;28;20188;-75
2021/12/26 01:48:30;;;;;;;5.57;5.07;;;-4.60;5.70;;;;;;5032732;28;20202;-75
2021/12/26 01:50:55;;;;;;;5.20;4.83;;;-4.60;4.00;;;;;;5031261;28;20187;-76
2021/12/26 01:53:25;;;;;;;3.30;3.10;;;-4.70;1.00;;;;;;5035556;28;20449;-76
2021/12/26 01:55:53;;;;;;;10.43;4.47;;;-4.70;1.00;;;;;;5035466;28;20799;-67
2021/12/26 01:58:28;;;;;;;5.05;4.65;;;-4.70;1.00;;;;;;5036674;28;20167;-68
2021/12/26 02:00:57;;;;;;;5.45;5.03;;;-4.70;1.00;;;;;;5036575;28;20167;-69
2021/12/26 02:03:24;;;;;;;6.18;5.38;;;-4.80;1.00;;;;;;5034658;28;20203;-75
2021/12/26 02:05:50;;;;;;;4.95;3.83;;;-4.80;1.00;;;;;;5036467;28;20191;-68
2021/12/26 02:08:16;;;;;;;6.50;4.90;;;-4.80;1.00;;;;;;5036433;28;20199;-67
2021/12/26 02:10:42;;;;;;;6.35;5.75;;;-4.80;1.00;;;;;;5036514;28;20167;-67
2021/12/26 02:13:08;;;;;;;4.43;4.03;;;-4.80;1.00;;;;;;5035402;28;20172;-76
2021/12/26 02:15:35;;;;;;;6.00;5.50;;;-4.80;1.00;;;;;;5035821;28;20936;-75
2021/12/26 02:18:01;;;;;;;4.85;4.45;;;-4.90;1.00;;;;;;5036414;28;20187;-68
2021/12/26 02:20:48;;;;;;;9.87;3.83;;;-4.90;1.00;;;;;;5035817;28;20888;-76
2021/12/26 02:23:20;;;;;;;5.07;4.78;;;-4.90;1.00;;;;;;5035648;28;20877;-67
2021/12/26 02:28:16;;;;;;;6.60;6.07;;;-4.90;1.00;;;;;;5035719;28;20192;-68
2021/12/26 02:30:42;;;;;;;6.93;6.35;;;-4.90;1.00;;;;;;5036111;28;20763;-72
2021/12/26 02:33:11;;;;;;;8.50;5.80;;;-4.90;1.00;;;;;;5035070;28;20179;-76
2021/12/26 02:35:37;;;;;;;7.95;4.50;;;-4.80;1.00;;;;;;5035680;28;20187;-67
2021/12/26 02:38:04;;;;;;;5.03;4.63;;;-4.70;1.00;;;;;;5035870;28;20645;-76
2021/12/26 02:40:30;;;;;;;5.75;5.32;;;-4.70;1.00;;;;;;5035395;28;20180;-66
2021/12/26 02:42:55;;;;;;;6.40;5.10;;;-4.60;2.70;;;;;;5035016;28;20171;-76
2021/12/26 02:45:21;;;;;;;5.93;5.33;;;-4.60;4.80;;;;;;5035279;28;20771;-68
2021/12/26 02:47:49;;;;;;;9.57;7.00;;;-4.50;7.90;;;;;;5035216;28;20727;-67
2021/12/26 02:50:25;;;;;;;5.95;5.43;;;-4.60;7.20;;;;;;5035646;28;20211;-76
2021/12/26 02:52:52;;;;;;;4.75;4.45;;;-4.60;7.70;;;;;;5034720;28;20234;-66
2021/12/26 02:55:19;;;;;;;5.10;4.80;;;-4.60;6.60;;;;;;5035620;28;20250;-76
2021/12/26 02:57:49;;;;;;;5.50;5.10;;;-4.60;5.60;;;;;;5035495;28;20222;-67
2021/12/26 03:00:18;;;;;;;6.05;5.15;;;-4.70;3.80;;;;;;5033546;28;20587;-74
2021/12/26 03:02:57;;;;;;;4.80;4.50;;;-4.70;3.10;;;;;;5033125;28;20174;-68
2021/12/26 03:05:27;;;;;;;7.35;4.75;;;-4.70;6.10;;;;;;5035403;28;20187;-68
2021/12/26 03:07:53;;;;;;;3.60;3.50;;;-4.70;8.40;;;;;;5035217;28;20711;-74
2021/12/26 03:10:22;;;;;;;8.75;6.32;;;-4.70;10.20;;;;;;5034230;28;20206;-67
2021/12/26 03:12:58;;;;;;;5.93;5.05;;;-4.70;15.40;;;;;;5034441;28;20167;-75
2021/12/26 03:15:25;;;;;;;11.48;5.60;;;-4.60;18.30;;;;;;5035195;28;20167;-75
2021/12/26 03:17:52;;;;;;;4.75;4.35;;;-4.60;21.00;;;;;;5034313;28;20168;-66
2021/12/26 03:20:21;;;;;;;5.40;5.00;;;-4.60;21.20;;;;;;5035119;28;20917;-75
2021/12/26 03:22:47;;;;;;;6.35;4.60;;;-4.60;21.40;;;;;;5034212;28;20168;-77
2021/12/26 03:25:22;;;;;;;5.63;5.33;;;-4.60;21.20;;;;;;5035140;28;20229;-66
2021/12/26 03:27:48;;;;;;;5.25;4.05;;;-4.60;20.50;;;;;;5034851;28;20636;-74
2021/12/26 03:30:18;;;;;;;4.78;4.38;;;-4.70;14.90;;;;;;5033547;28;20179;-75
2021/12/26 03:32:44;;;;;;;5.55;5.25;;;-4.70;14.60;;;;;;5032805;28;20160;-68
2021/12/26 03:35:10;;;;;;;9.43;5.07;;;-4.70;13.20;;;;;;5034346;28;20221;-68
2021/12/26 03:37:37;;;;;;;4.32;4.05;;;-4.70;9.90;;;;;;5034321;28;20438;-67
2021/12/26 03:40:05;;;;;;;6.97;5.20;;;-4.70;5.10;;;;;;5034730;28;20175;-68
2021/12/26 03:42:31;;;;;;;7.13;5.60;;;-4.80;1.00;;;;;;5032583;28;20171;-76
2021/12/26 03:44:58;;;;;;;5.20;4.80;;;-4.80;1.00;;;;;;5034606;28;20251;-67
2021/12/26 03:47:24;;;;;;;5.20;4.80;;;-4.90;1.00;;;;;;5034585;28;20226;-74
2021/12/26 03:49:51;;;;;;;8.35;4.95;;;-4.90;1.00;;;;;;5034417;28;20206;-76
2021/12/26 03:52:17;;;;;;;4.68;4.28;;;-5.00;1.00;;;;;;5032519;28;20176;-76
2021/12/26 03:54:43;;;;;;;6.57;4.78;;;-5.00;1.00;;;;;;5034522;28;20178;-76
2021/12/26 03:57:08;;;;;;;5.10;4.65;;;-5.00;1.00;;;;;;5034419;28;20230;-67
2021/12/26 03:59:34;;;;;;;4.20;4.00;;;-5.00;1.00;;;;;;5034353;28;20191;-76
2021/12/26 04:02:00;;;;;;;5.83;3.80;;;-5.00;1.00;;;;;;5033585;28;20502;-70
2021/12/26 04:04:26;;;;;;;15.93;6.97;;;-5.10;1.00;;;;;;5033179;28;20175;-75
2021/12/26 04:06:51;;;;;;;4.72;4.43;;;-5.10;1.00;;;;;;5032930;28;20199;-71
2021/12/26 04:09:18;;;;;;;7.13;5.07;;;-5.10;1.00;;;;;;5033872;28;20252;-67
2021/12/26 04:11:45;;;;;;;6.28;5.65;;;-5.10;1.00;;;;;;5033729;28;20160;-67
2021/12/26 04:14:13;;;;;;;6.25;5.85;;;-5.10;1.00;;;;;;5031680;28;20251;-71
2021/12/26 04:16:39;;;;;;;5.55;5.05;;;-5.10;1.00;;;;;;5033984;28;20540;-76
2021/12/26 04:19:05;;;;;;;4.93;4.63;;;-5.10;1.00;;;;;;5033958;28;20172;-69
2021/12/26 04:21:31;;;;;;;3.85;3.55;;;-5.10;1.00;;;;;;5032713;28;20171;-71
2021/12/26 04:23:58;;;;;;;5.32;4.82;;;-5.10;1.00;;;;;;5032837;28;20202;-76
2021/12/26 04:26:24;;;;;;;7.57;6.00;;;-5.10;1.00;;;;;;5032317;28;20192;-76
2021/12/26 04:28:50;;;;;;;4.53;4.20;;;-5.30;1.00;;;;;;5033069;28;20210;-67
2021/12/26 04:31:16;;;;;;;11.35;5.60;;;-5.50;1.00;;;;;;5033911;28;20406;-76
2021/12/26 04:33:42;;;;;;;6.60;4.43;;;-5.40;1.00;;;;;;5032830;28;20164;-67
2021/12/26 04:36:08;;;;;;;4.43;4.22;;;-5.50;1.00;;;;;;5033561;28;20195;-67
2021/12/26 04:38:34;;;;;;;5.47;4.85;;;-5.50;1.00;;;;;;5033628;28;20175;-75
2021/12/26 04:41:03;;;;;;;4.18;3.95;;;-5.40;1.00;;;;;;5033144;28;20250;-76
2021/12/26 04:43:29;;;;;;;4.30;4.10;;;-5.40;1.00;;;;;;5031442;28;20640;-66
2021/12/26 04:45:55;;;;;;;5.30;5.00;;;-5.50;1.00;;;;;;5033614;28;20196;-67
2021/12/26 04:48:21;;;;;;;4.17;3.90;;;-5.50;1.00;;;;;;5032783;28;20314;-67
2021/12/26 04:50:47;;;;;;;4.63;4.33;;;-5.40;1.00;;;;;;5033265;28;20477;-75
2021/12/26 04:53:13;;;;;;;3.90;3.80;;;-5.40;1.00;;;;;;5032564;28;20398;-66
2021/12/26 04:55:39;;;;;;;4.23;3.93;;;-5.40;1.00;;;;;;5033241;28;20724;-76
2021/12/26 04:58:05;;;;;;;4.17;3.87;;;-5.40;1.00;;;;;;5033064;28;20441;-71
2021/12/26 05:00:32;;;;;;;6.67;6.27;;;-5.40;1.00;;;;;;5031833;28;20422;-76
2021/12/26 05:02:59;;;;;;;4.28;4.07;;;-5.40;1.00;;;;;;5030996;28;20413;-67
2021/12/26 05:05:27;;;;;;;5.00;4.60;;;-5.40;1.00;;;;;;5033199;28;20178;-67
2021/12/26 05:07:54;;;;;;;9.27;6.53;;;-5.40;1.00;;;;;;5032649;28;20176;-67
2021/12/26 05:10:21;;;;;;;7.53;6.63;;;-5.40;1.00;;;;;;5033117;28;20163;-67
2021/12/26 05:12:47;;;;;;;4.72;4.43;;;-5.50;1.00;;;;;;5031935;28;20164;-75
2021/12/26 05:15:16;;;;;;;4.72;4.43;;;-5.50;1.00;;;;;;5033172;28;20633;-76
2021/12/26 05:17:42;;;;;;;6.80;4.38;;;-5.40;1.00;;;;;;5033103;28;20167;-75
2021/12/26 05:20:09;;;;;;;5.20;4.70;;;-5.40;1.00;;;;;;5033074;28;20175;-76
2021/12/26 05:22:35;;;;;;;5.45;5.10;;;-5.40;1.00;;;;;;5032121;28;20402;-75
2021/12/26 05:25:03;;;;;;;3.40;3.20;;;-5.40;1.00;;;;;;5032703;28;20166;-67
2021/12/26 05:27:28;;;;;;;4.50;4.20;;;-5.40;1.00;;;;;;5031704;28;20275;-71
2021/12/26 05:29:54;;;;;;;4.40;3.70;;;-5.40;1.00;;;;;;5032586;28;20361;-68
2021/12/26 05:32:20;;;;;;;4.57;4.20;;;-5.40;1.00;;;;;;5030633;28;20175;-68
2021/12/26 05:34:45;;;;;;;5.93;5.43;;;-5.40;1.00;;;;;;5032941;28;20255;-74
2021/12/26 05:37:11;;;;;;;4.67;4.27;;;-5.40;1.00;;;;;;5031700;28;20205;-70
2021/12/26 05:39:37;;;;;;;4.03;3.83;;;-5.40;1.00;;;;;;5032596;28;20191;-76
2021/12/26 05:42:03;;;;;;;5.83;4.60;;;-5.40;1.00;;;;;;5031877;28;20172;-71
2021/12/26 05:44:28;;;;;;;3.97;3.70;;;-5.40;1.00;;;;;;5032421;28;20246;-67
2021/12/26 05:46:54;;;;;;;5.37;4.90;;;-5.40;1.00;;;;;;5032312;28;20515;-67
2021/12/26 05:49:20;;;;;;;4.57;4.27;;;-5.50;1.00;;;;;;5032760;28;20278;-76
2021/12/26 05:51:45;;;;;;;3.77;3.47;;;-5.50;1.00;;;;;;5032596;28;20656;-75
2021/12/26 05:54:11;;;;;;;4.10;3.83;;;-5.60;1.00;;;;;;5031782;28;20673;-76
2021/12/26 05:56:37;;;;;;;3.10;2.90;;;-5.60;1.00;;;;;;5032703;28;20257;-67
2021/12/26 05:59:03;;;;;;;3.53;3.33;;;-5.60;1.00;;;;;;5032439;28;20243;-68
2021/12/26 06:01:29;;;;;;;5.05;4.57;;;-5.60;1.00;;;;;;5032180;28;20410;-76
2021/12/26 06:03:55;;;;;;;6.27;3.80;;;-5.60;1.00;;;;;;5031524;28;20175;-70
2021/12/26 06:06:20;;;;;;;4.50;4.20;;;-5.60;1.00;;;;;;5032493;28;20195;-75
2021/12/26 06:08:46;;;;;;;6.43;5.77;;;-5.60;1.00;;;;;;5032483;28;20195;-75
2021/12/26 06:11:12;;;;;;;3.80;3.47;;;-5.60;1.00;;;;;;5032419;28;20167;-76
2021/12/26 06:13:37;;;;;;;3.03;2.93;;;-5.60;1.00;;;;;;5031620;28;20179;-67
2021/12/26 06:16:03;;;;;;;4.73;4.43;;;-5.60;1.00;;;;;;5032565;28;20699;-69
2021/12/26 06:18:29;;;;;;;7.20;3.27;;;-5.60;1.00;;;;;;5032478;28;20684;-72
2021/12/26 06:20:54;;;;;;;4.00;3.70;;;-5.50;1.00;;;;;;5031524;28;20418;-67
2021/12/26 06:23:20;;;;;;;3.70;3.50;;;-5.60;1.00;;;;;;5031541;28;20164;-67
2021/12/26 06:25:45;;;;;;;4.10;3.80;;;-5.60;1.00;;;;;;5032444;28;20223;-66
2021/12/26 06:28:11;;;;;;;3.33;3.13;;;-5.60;1.00;;;;;;5032369;28;20270;-67
2021/12/26 06:30:37;;;;;;;3.80;3.60;;;-5.60;1.00;;;;;;5032520;28;20179;-75
2021/12/26 06:33:03;;;;;;;3.80;3.60;;;-5.70;1.00;;;;;;5031572;28;20191;-68
2021/12/26 06:35:28;;;;;;;6.33;4.33;;;-5.70;1.00;;;;;;5032089;28;20387;-74
2021/12/26 06:37:54;;;;;;;5.00;4.70;;;-5.70;1.00;;;;;;5033635;28;20822;-76
2021/12/26 06:40:20;;;;;;;3.87;2.73;;;-5.70;1.00;;;;;;5035252;28;20167;-76
2021/12/26 06:42:49;;;;;;;2.73;2.63;;;-5.70;1.00;;;;;;5034919;28;20172;-68
2021/12/26 06:45:17;;;;;;;3.55;3.25;;;-5.80;1.00;;;;;;5035846;28;20437;-68
2021/12/26 06:47:49;;;;;;;3.30;3.03;;;-5.80;1.00;;;;;;5035591;28;20156;-76
2021/12/26 06:50:15;;;;;;;4.60;4.20;;;-5.80;1.00;;;;;;5035594;28;20179;-75
2021/12/26 06:52:42;;;;;;;3.92;3.60;;;-5.80;1.00;;;;;;5034425;28;20170;-75
2021/12/26 06:55:08;;;;;;;3.67;3.47;;;-5.80;1.00;;;;;;5034732;28;20593;-66
2021/12/26 06:57:34;;;;;;;4.05;3.72;;;-5.80;1.00;;;;;;5034796;28;20661;-72
2021/12/26 06:59:59;;;;;;;2.55;2.45;;;-5.80;1.00;;;;;;5035505;28;20305;-72
2021/12/26 07:02:25;;;;;;;4.57;4.10;;;-5.90;1.00;;;;;;5034269;28;20500;-66
2021/12/26 07:04:51;;;;;;;3.60;3.30;;;-5.90;1.00;;;;;;5035336;28;20174;-76
2021/12/26 07:07:16;;;;;;;4.37;4.17;;;-5.90;1.00;;;;;;5035367;28;20192;-76
2021/12/26 07:09:43;;;;;;;4.23;3.93;;;-5.90;1.00;;;;;;5033446;28;20700;-66
2021/12/26 07:12:10;;;;;;;4.32;3.60;;;-5.90;1.00;;;;;;5034327;28;20171;-75
2021/12/26 07:14:36;;;;;;;5.63;2.90;;;-5.90;1.00;;;;;;5034927;28;20159;-72
2021/12/26 07:17:01;;;;;;;4.00;3.67;;;-5.90;1.00;;;;;;5034823;28;20697;-75
2021/12/26 07:19:27;;;;;;;12.40;3.87;;;-6.00;1.00;;;;;;5035026;28;20205;-75
2021/12/26 07:21:52;;;;;;;3.43;3.13;;;-6.10;1.00;;;;;;5034834;28;20200;-75
2021/12/26 07:24:18;;;;;;;3.77;3.23;;;-6.10;1.00;;;;;;5034422;28;20643;-67
2021/12/26 07:26:44;;;;;;;2.90;2.80;;;-6.10;1.00;;;;;;5030609;28;20545;-67
2021/12/26 07:29:09;;;;;;;4.93;3.57;;;-6.00;1.00;;;;;;5036205;28;20210;-75
2021/12/26 07:31:35;;;;;;;3.27;3.07;;;-6.00;1.00;;;;;;5033033;28;20640;-71
2021/12/26 07:34:01;;;;;;;3.70;3.50;;;-6.10;1.00;;;;;;5029994;28;20175;-68
2021/12/26 07:36:27;;;;;;;4.87;4.07;;;-6.10;1.00;;;;;;5034779;28;20180;-74
2021/12/26 07:38:53;;;;;;;3.90;3.70;;;-6.10;1.00;;;;;;5034789;28;20175;-76
2021/12/26 07:41:19;;;;;;;4.15;3.63;;;-6.10;1.00;;;;;;5034826;28;20402;-72
2021/12/26 07:43:45;;;;;;;2.90;2.70;;;-6.10;1.00;;;;;;5033706;28;20645;-74
2021/12/26 07:46:11;;;;;;;3.93;3.73;;;-6.10;1.00;;;;;;5034002;28;20206;-66
2021/12/26 07:48:37;;;;;;;3.00;2.45;;;-6.10;1.00;;;;;;5033868;28;20649;-69
2021/12/26 07:51:05;;;;;;;18.73;3.90;;;-6.10;1.00;;;;;;5033341;28;20310;-68
2021/12/26 07:53:32;;;;;;;3.75;3.13;;;-6.20;1.00;;;;;;5033384;28;20164;-75
2021/12/26 07:55:58;;;;;;;4.07;3.80;;;-6.20;1.00;;;;;;5034338;28;20183;-74
2021/12/26 07:58:23;;;;;;;4.80;4.50;;;-6.10;1.00;;;;;;5034316;28;20183;-76
2021/12/26 08:00:50;;;;;;;4.33;4.00;;;-6.10;1.00;;;;;;5034365;28;20179;-76
2021/12/26 08:03:16;;;;;;;5.60;3.53;;;-6.10;1.00;;;;;;5032267;28;20234;-76
2021/12/26 08:05:42;;;;;;;3.40;3.20;;;-6.10;1.00;;;;;;5033952;28;20203;-66
2021/12/26 08:08:07;;;;;;;3.53;3.33;;;-6.10;1.00;;;;;;5033401;28;20243;-66
2021/12/26 08:10:33;;;;;;;3.47;3.10;;;-6.20;1.00;;;;;;5034294;28;20561;-67
2021/12/26 08:12:59;;;;;;;3.50;3.23;;;-6.20;1.00;;;;;;5033273;28;20164;-76
2021/12/26 08:15:24;;;;;;;6.13;4.10;;;-6.20;1.00;;;;;;5034021;28;20238;-75
2021/12/26 08:17:50;;;;;;;3.80;3.60;;;-6.10;1.00;;;;;;5033480;28;20172;-70
2021/12/26 08:20:16;;;;;;;4.80;3.37;;;-6.10;1.00;;;;;;5033731;28;20648;-71
2021/12/26 08:22:42;;;;;;;4.13;3.90;;;-6.10;1.00;;;;;;5031819;28;20946;-67
2021/12/26 08:25:08;;;;;;;3.23;3.03;;;-6.10;1.00;;;;;;5033252;28;20198;-67
2021/12/26 08:27:34;;;;;;;5.10;4.63;;;-6.00;1.00;;;;;;5033314;28;20425;-75
2021/12/26 08:30:01;;;;;;;2.77;2.57;;;-6.00;1.00;;;;;;5034088;28;20200;-74
2021/12/26 08:32:28;;;;;;;4.78;4.43;;;-6.00;1.00;;;;;;5033056;28;20409;-72
2021/12/26 08:34:53;;;;;;;3.38;3.17;;;-5.90;1.00;;;;;;5033508;28;20172;-69
2021/12/26 08:37:19;;;;;;;6.23;5.63;;;-5.90;1.00;;;;;;5034060;28;20241;-75
2021/12/26 08:39:47;;;;;;;4.00;3.17;;;-5.80;1.00;;;;;;5034383;28;20644;-76
2021/12/26 08:42:13;;;;;;;4.13;3.83;;;-5.80;1.00;;;;;;5032660;28;20179;-74
2021/12/26 08:44:40;;;;;;;3.70;3.45;;;-5.80;1.00;;;;;;5033125;28;20182;-70
2021/12/26 08:47:07;;;;;;;6.97;3.65;;;-5.80;1.00;;;;;;5033859;28;20194;-76
2021/12/26 08:49:33;;;;;;;2.83;2.67;;;-5.70;1.00;;;;;;5033520;28;20205;-75
2021/12/26 08:51:59;;;;;;;2.93;2.73;;;-5.70;1.00;;;;;;5032841;28;20182;-72
2021/12/26 08:54:26;;;;;;;3.45;3.25;;;-5.60;1.00;;;;;;5033396;28;20485;-67
2021/12/26 08:56:53;;;;;;;4.45;3.53;;;-5.50;1.00;;;;;;5033136;28;20190;-66
2021/12/26 08:59:20;;;;;;;3.45;2.95;;;-5.50;1.00;;;;;;5033584;28;20168;-75
2021/12/26 09:01:46;;;;;;;3.03;2.67;;;-5.40;1.00;;;;;;5032627;28;20175;-67
2021/12/26 09:04:13;;;;;;;2.90;2.80;;;-5.40;1.00;;;;;;5031767;28;20167;-68
2021/12/26 09:06:39;;;;;;;3.38;2.75;;;-5.30;1.00;;;;;;5033209;28;20670;-70
2021/12/26 09:09:05;;;;;;;3.13;2.93;;;-5.30;1.00;;;;;;5033155;28;20278;-76
2021/12/26 09:11:31;;;;;;;3.50;2.83;;;-5.30;1.00;;;;;;5033162;28;20167;-75
2021/12/26 09:13:56;;;;;;;3.05;2.72;;;-5.20;1.00;;;;;;5032192;28;20441;-70
2021/12/26 09:16:22;;;;;;;3.90;3.60;;;-5.10;1.00;;;;;;5032678;28;20602;-74
2021/12/26 09:18:50;;;;;;;4.80;3.40;;;-5.10;1.00;;;;;;5032724;28;20173;-75
2021/12/26 09:21:16;;;;;;;3.85;2.95;;;-5.10;1.00;;;;;;5032612;28;20801;-73
2021/12/26 09:23:41;;;;;;;3.23;3.03;;;-5.00;1.00;;;;;;5031928;28;20251;-75
2021/12/26 09:26:07;;;;;;;3.80;3.70;;;-4.90;1.00;;;;;;5031247;28;20207;-66
2021/12/26 09:28:36;;;;;;;4.10;3.80;;;-4.90;1.00;;;;;;5032071;28;20195;-73
2021/12/26 09:31:03;;;;;;;4.00;3.70;;;-4.80;1.00;;;;;;5032638;28;20525;-73
2021/12/26 09:33:29;;;;;;;3.28;2.47;;;-4.70;1.00;;;;;;5031561;28;20213;-73
2021/12/26 09:35:54;;;;;;;3.73;3.40;;;-4.70;1.00;;;;;;5032846;28;20200;-74
2021/12/26 09:38:20;;;;;;;3.30;2.70;;;-4.60;1.00;;;;;;5031765;28;20164;-74
2021/12/26 09:40:46;;;;;;;3.33;3.17;;;-4.50;1.00;;;;;;5031139;28;20226;-70
2021/12/26 09:43:12;;;;;;;4.23;3.90;;;-4.60;1.00;;;;;;5031883;28;20164;-69
2021/12/26 09:45:38;;;;;;;2.42;2.33;;;-4.50;1.00;;;;;;5032770;28;20194;-66
2021/12/26 09:48:04;;;;;;;3.90;3.60;;;-4.40;1.00;;;;;;5032790;28;20172;-73
2021/12/26 09:50:30;;;;;;;2.30;2.20;;;-4.40;1.00;;;;;;5032443;28;20241;-66
2021/12/26 09:52:55;;;;;;;11.63;3.50;;;-4.30;1.00;;;;;;5031739;28;20715;-74
2021/12/26 09:55:25;;;;;;;3.77;3.47;;;-4.30;1.00;;;;;;5031734;28;20440;-74
2021/12/26 09:57:50;;;;;;;3.67;2.97;;;-4.20;1.00;;;;;;5031795;28;20210;-75
2021/12/26 10:00:41;;;;;;;3.40;3.10;;;-4.20;1.00;;;;;;5032647;28;20203;-73
2021/12/26 10:03:22;;;;;;;3.80;3.47;;;-4.20;1.00;;;;;;5026866;28;20241;-74
2021/12/26 10:06:03;;;;;;;4.22;3.85;;;-4.10;1.00;;;;;;5032057;28;20278;-73
2021/12/26 10:08:32;;;;;;;2.90;2.80;;;-4.00;1.00;;;;;;5032057;28;20230;-74
2021/12/26 10:11:14;;;;;;;2.15;2.05;;;-3.90;1.00;;;;;;5032290;28;20180;-74
2021/12/26 10:13:53;;;;;;;2.30;2.20;;;-3.80;1.00;;;;;;5034516;28;20164;-74
2021/12/26 10:16:21;;;;;;;2.95;2.58;;;-3.60;1.00;;;;;;5035573;28;20262;-74
2021/12/26 10:18:48;;;;;;;3.25;3.05;;;-3.50;1.00;;;;;;5036259;28;20238;-66
2021/12/26 10:21:35;;;;;;;4.82;3.53;;;-3.40;1.00;;;;;;5036228;28;20171;-74
2021/12/26 10:24:11;;;;;;;2.88;2.67;;;-3.30;1.00;;;;;;5015584;28;20506;-74
2021/12/26 10:26:41;;;;;;;2.97;2.72;;;-3.30;1.00;;;;;;5016428;28;20198;-74
2021/12/26 10:29:27;;;;;;;2.00;1.90;;;-3.20;1.00;;;;;;5016156;28;20266;-66
2021/12/26 10:31:59;;;;;;;3.22;2.47;;;-3.20;1.00;;;;;;5015942;28;20171;-65
2021/12/26 10:34:32;;;;;;;2.50;2.40;;;-3.10;1.00;;;;;;5015704;28;20248;-74
2021/12/26 10:36:59;;;;;;;2.30;2.10;;;-3.00;1.00;;;;;;5023458;28;20206;-74
2021/12/26 10:39:46;;;;;;;2.38;2.20;;;-3.00;1.00;;;;;;5035809;28;20164;-69
2021/12/26 10:42:16;;;;;;;3.33;3.05;;;-3.00;1.00;;;;;;5034990;28;20259;-75
2021/12/26 10:44:51;;;;;;;3.88;3.50;;;-3.00;1.00;;;;;;5035875;28;20164;-74
2021/12/26 10:47:22;;;;;;;3.13;3.00;;;-2.90;1.00;;;;;;5034411;28;20207;-75
2021/12/26 10:49:53;;;;;;;3.25;3.13;;;-2.90;1.00;;;;;;5035575;28;20214;-75
2021/12/26 10:52:28;;;;;;;3.65;3.35;;;-2.90;1.00;;;;;;5034127;28;20183;-67
2021/12/26 10:55:01;;;;;;;4.00;3.70;;;-2.80;1.00;;;;;;5035121;28;20191;-75
2021/12/26 10:57:29;;;;;;;11.13;3.13;;;-2.90;1.00;;;;;;5035366;28;20583;-67
2021/12/26 11:00:25;;;;;;;5.13;3.03;;;-2.80;1.00;;;;;;5035469;28;20178;-66
2021/12/26 11:03:01;;;;;;;3.97;3.33;;;-2.90;1.00;;;;;;5033967;28;20180;-66
2021/12/26 11:05:31;;;;;;;4.68;4.25;;;-2.80;1.00;;;;;;5034985;28;20179;-66
2021/12/26 11:08:00;;;;;;;3.42;3.30;;;-2.80;1.00;;;;;;5035514;28;20607;-67
2021/12/26 11:10:31;;;;;;;2.72;2.47;;;-2.80;1.00;;;;;;5034699;28;20688;-66
2021/12/26 11:12:59;;;;;;;3.30;3.10;;;-2.70;1.00;;;;;;5034328;28;20176;-69
2021/12/26 11:15:30;;;;;;;2.95;2.75;;;-2.70;1.00;;;;;;5035127;28;20544;-74
2021/12/26 11:18:02;;;;;;;3.90;3.35;;;-2.60;1.00;;;;;;5034065;28;20175;-66
2021/12/26 11:20:29;;;;;;;3.53;3.28;;;-2.60;1.00;;;;;;5034851;28;20190;-75
2021/12/26 11:22:55;;;;;;;3.45;3.17;;;-2.50;1.00;;;;;;5034188;28;20222;-67
2021/12/26 11:25:22;;;;;;;3.90;3.42;;;-2.40;1.00;;;;;;5033962;28;20221;-74
2021/12/26 11:27:48;;;;;;;6.55;3.80;;;-2.30;1.00;;;;;;5034886;28;20207;-74
2021/12/26 11:30:14;;;;;;;3.67;3.20;;;-2.20;1.00;;;;;;5034351;28;20639;-66
2021/12/26 11:32:40;;;;;;;3.80;3.50;;;-2.20;1.00;;;;;;5034187;28;20553;-66
2021/12/26 11:35:07;;;;;;;4.10;3.80;;;-2.20;1.00;;;;;;5034654;28;20199;-66
2021/12/26 11:37:35;;;;;;;12.95;3.80;;;-2.20;1.00;;;;;;5034675;28;20230;-67
2021/12/26 11:40:01;;;;;;;4.15;3.78;;;-2.20;1.00;;;;;;5034780;28;20199;-69
2021/12/26 11:42:36;;;;;;;4.60;3.15;;;-2.30;1.00;;;;;;5033913;28;20254;-66
2021/12/26 11:45:13;;;;;;;4.68;4.38;;;-2.30;1.00;;;;;;5034632;28;20179;-74
2021/12/26 11:48:25;;;;;;;9.45;2.78;;;-2.20;1.00;;;;;;5034008;28;20270;-73
2021/12/26 11:51:03;;;;;;;8.68;3.28;;;-2.10;1.00;;;;;;5033824;28;20179;-75
2021/12/26 11:54:22;;;;;;;4.10;3.90;;;-2.00;1.00;;;;;;5033222;28;20164;-68
2021/12/26 11:57:28;;;;;;;4.40;4.10;;;-2.00;1.00;;;;;;5032091;28;20203;-74
2021/12/26 12:00:16;;;;;;;3.70;3.50;;;-2.00;1.00;;;;;;4936731;29;20259;-69
2021/12/26 12:02:58;;;;;;;4.13;3.60;;;-2.00;1.00;;;;;;5032516;28;20172;-72
2021/12/26 12:05:38;;;;;;;4.60;4.20;;;-2.00;1.00;;;;;;5047729;28;20535;-71
2021/12/26 12:08:09;;;;;;;4.35;4.10;;;-1.90;1.00;;;;;;5035358;28;20175;-67
2021/12/26 12:10:52;;;;;;;4.43;4.03;;;-1.90;1.00;;;;;;5034072;28;20176;-74
2021/12/26 12:13:26;;;;;;;3.88;3.58;;;-1.90;1.00;;;;;;5013511;28;20180;-66
2021/12/26 12:16:03;;;;;;;4.43;3.90;;;-1.90;1.00;;;;;;5030057;28;20660;-66
2021/12/26 12:18:38;;;;;;;4.00;3.75;;;-1.90;99.90;;;;;;5031974;28;20241;-73
2021/12/26 12:21:14;;;;;;;6.20;4.60;;;-1.80;99.90;;;;;;5032970;28;20175;-73
2021/12/26 12:24:03;;;;;;;6.05;5.22;;;-1.80;1.00;;;;;;5031703;28;20172;-72
2021/12/26 12:26:41;;;;;;;5.80;4.88;;;-1.80;1.00;;;;;;5022552;28;20215;-74
2021/12/26 12:29:08;;;;;;;4.43;4.13;;;-1.70;1.00;;;;;;5026702;28;20191;-67
2021/12/26 12:31:35;;;;;;;15.65;5.88;;;-1.70;1.00;;;;;;5032851;28;20179;-67
2021/12/26 12:34:13;;;;;;;6.13;5.53;;;-1.70;99.90;;;;;;5032437;28;20163;-66
2021/12/26 12:36:45;;;;;;;12.38;8.35;;;-1.70;99.90;;;;;;5033156;28;20526;-75
2021/12/26 12:39:20;;;;;;;8.63;7.82;;;-1.70;99.90;;;;;;5031793;28;20175;-73
2021/12/26 12:41:49;;;;;;;15.27;7.43;;;-1.70;99.90;;;;;;5033556;28;20175;-66
2021/12/26 12:44:28;;;;;;;8.82;4.40;;;-1.70;99.90;;;;;;5031925;28;20226;-69
2021/12/26 12:47:03;;;;;;;5.35;4.93;;;-1.70;99.90;;;;;;5033155;28;20199;-67
2021/12/26 12:49:52;;;;;;;7.05;5.25;;;-1.80;99.90;;;;;;5031819;28;20682;-67
2021/12/26 12:52:39;;;;;;;8.38;5.18;;;-1.80;99.90;;;;;;5012649;28;20184;-66
2021/12/26 12:55:08;;;;;;;18.50;4.97;;;-1.70;99.90;;;;;;5013480;28;20172;-67
2021/12/26 12:57:37;;;;;;;8.45;3.53;;;-1.70;99.90;;;;;;5030864;28;20195;-66
2021/12/26 13:00:25;;;;;;;4.88;4.03;;;-1.70;99.90;;;;;;5033205;28;20170;-73
2021/12/26 13:02:57;;;;;;;3.25;3.13;;;-1.70;99.90;;;;;;5029147;28;20180;-75
2021/12/26 13:05:28;;;;;;;8.70;4.38;;;-1.60;99.90;;;;;;5027153;28;20199;-66